createdAt,value
2019-05-03T00:00:08.173Z,9.45
2019-05-03T00:01:08.155Z,9.45
2019-05-03T00:02:08.141Z,9.45
2019-05-03T00:03:08.136Z,9.44
2019-05-03T00:04:08.134Z,9.42
2019-05-03T00:05:08.131Z,9.42
2019-05-03T00:07:17.026Z,9.41
2019-05-03T00:08:16.998Z,9.41
2019-05-03T00:09:17.011Z,9.41
2019-05-03T00:10:16.996Z,9.41
2019-05-03T00:11:16.967Z,9.41
2019-05-03T00:12:16.966Z,9.38
2019-05-03T00:13:16.945Z,9.40
2019-05-03T00:14:16.935Z,9.38
2019-05-03T00:15:16.937Z,9.40
2019-05-03T00:16:16.914Z,9.38
2019-05-03T00:17:16.923Z,9.38
2019-05-03T00:18:16.902Z,9.40
2019-05-03T00:19:16.883Z,9.40
2019-05-03T00:20:16.872Z,9.41
2019-05-03T00:21:16.871Z,9.38
2019-05-03T00:22:16.861Z,9.35
2019-05-03T00:23:16.861Z,9.37
2019-05-03T00:24:16.834Z,9.35
2019-05-03T00:25:16.820Z,9.37
2019-05-03T00:26:16.832Z,9.37
2019-05-03T00:27:16.799Z,9.35
2019-05-03T00:28:16.793Z,9.35
2019-05-03T00:29:16.787Z,9.37
2019-05-03T00:30:16.773Z,9.35
2019-05-03T00:31:16.767Z,9.37
2019-05-03T00:32:17.067Z,9.35
2019-05-03T00:33:16.734Z,9.35
2019-05-03T00:34:16.729Z,9.37
2019-05-03T00:35:16.720Z,9.37
2019-05-03T00:36:16.718Z,9.40
2019-05-03T00:37:16.693Z,9.41
2019-05-03T00:38:16.684Z,9.41
2019-05-03T00:39:16.676Z,9.44
2019-05-03T00:40:16.675Z,9.45
2019-05-03T00:41:16.652Z,9.45
2019-05-03T00:42:16.633Z,9.44
2019-05-03T00:43:16.642Z,9.42
2019-05-03T00:44:16.621Z,9.42
2019-05-03T00:45:16.601Z,9.42
2019-05-03T00:46:16.607Z,9.44
2019-05-03T00:47:16.580Z,9.48
2019-05-03T00:48:16.580Z,9.48
2019-05-03T00:49:16.560Z,9.50
2019-05-03T00:50:16.553Z,9.50
2019-05-03T00:51:16.538Z,9.50
2019-05-03T00:52:16.549Z,9.45
2019-05-03T00:53:16.519Z,9.38
2019-05-03T00:54:16.507Z,9.31
2019-05-03T00:55:19.210Z,9.22
2019-05-03T00:56:16.487Z,9.20
2019-05-03T00:57:16.486Z,9.17
2019-05-03T00:58:16.469Z,9.12
2019-05-03T00:59:16.475Z,9.06
2019-05-03T01:00:16.445Z,9.01
2019-05-03T01:01:16.435Z,8.96
2019-05-03T01:02:16.422Z,8.93
2019-05-03T01:03:16.417Z,8.89
2019-05-03T01:04:16.413Z,8.86
2019-05-03T01:05:16.392Z,8.82
2019-05-03T01:06:16.391Z,8.83
2019-05-03T01:07:16.374Z,8.79
2019-05-03T01:08:16.362Z,8.76
2019-05-03T01:09:16.350Z,8.78
2019-05-03T01:10:16.359Z,8.79
2019-05-03T01:11:16.330Z,8.82
2019-05-03T01:12:16.319Z,8.85
2019-05-03T01:13:16.300Z,8.83
2019-05-03T01:14:16.318Z,8.85
2019-05-03T01:15:16.277Z,8.88
2019-05-03T01:16:16.280Z,8.80
2019-05-03T01:17:16.257Z,8.79
2019-05-03T01:18:16.246Z,8.78
2019-05-03T01:19:16.338Z,8.76
2019-05-03T01:20:16.226Z,8.75
2019-05-03T01:21:16.216Z,8.70
2019-05-03T01:22:16.215Z,8.68
2019-05-03T01:23:16.194Z,8.64
2019-05-03T01:24:18.253Z,8.65
2019-05-03T01:25:28.815Z,8.64
2019-05-03T01:26:17.173Z,8.61
2019-05-03T01:27:16.152Z,8.63
2019-05-03T01:28:16.143Z,8.61
2019-05-03T01:29:16.141Z,8.60
2019-05-03T01:30:16.121Z,8.58
2019-05-03T01:31:16.120Z,8.57
2019-05-03T01:32:16.110Z,8.55
2019-05-03T01:33:16.089Z,8.54
2019-05-03T01:34:16.081Z,8.55
2019-05-03T01:35:16.089Z,8.54
2019-05-03T01:36:16.060Z,8.52
2019-05-03T01:37:16.059Z,8.52
2019-05-03T01:38:16.037Z,8.52
2019-05-03T01:39:16.026Z,8.52
2019-05-03T01:40:16.017Z,8.54
2019-05-03T01:41:16.007Z,8.54
2019-05-03T01:42:16.005Z,8.54
2019-05-03T01:43:15.978Z,8.52
2019-05-03T01:44:15.975Z,8.52
2019-05-03T01:45:15.955Z,8.52
2019-05-03T01:46:15.958Z,8.52
2019-05-03T01:47:15.943Z,8.54
2019-05-03T01:48:15.924Z,8.55
2019-05-03T01:49:15.914Z,8.57
2019-05-03T01:50:15.913Z,8.57
2019-05-03T01:51:15.901Z,8.58
2019-05-03T01:52:15.881Z,8.60
2019-05-03T01:53:15.881Z,8.58
2019-05-03T01:54:15.871Z,8.60
2019-05-03T01:55:16.067Z,8.60
2019-05-03T01:56:15.850Z,8.60
2019-05-03T01:57:15.834Z,8.60
2019-05-03T01:58:15.828Z,8.60
2019-05-03T01:59:15.812Z,8.60
2019-05-03T02:00:15.798Z,8.60
2019-05-03T02:01:15.797Z,8.60
2019-05-03T02:02:15.788Z,8.60
2019-05-03T02:03:15.757Z,8.58
2019-05-03T02:04:15.756Z,8.57
2019-05-03T02:05:15.746Z,8.55
2019-05-03T02:06:15.746Z,8.54
2019-05-03T02:07:15.715Z,8.54
2019-05-03T02:08:15.718Z,8.52
2019-05-03T02:09:15.735Z,8.52
2019-05-03T02:10:15.691Z,8.50
2019-05-03T02:11:15.698Z,8.50
2019-05-03T02:12:15.676Z,8.52
2019-05-03T02:13:15.668Z,8.50
2019-05-03T02:14:15.654Z,8.50
2019-05-03T02:15:15.650Z,8.49
2019-05-03T02:16:15.645Z,8.50
2019-05-03T02:17:15.611Z,8.50
2019-05-03T02:18:15.600Z,8.50
2019-05-03T02:19:15.592Z,8.50
2019-05-03T02:20:15.589Z,8.52
2019-05-03T02:21:15.593Z,8.55
2019-05-03T02:22:15.559Z,8.54
2019-05-03T02:23:15.555Z,8.55
2019-05-03T02:24:15.540Z,8.55
2019-05-03T02:25:15.529Z,8.55
2019-05-03T02:26:15.541Z,8.57
2019-05-03T02:27:15.516Z,8.58
2019-05-03T02:28:15.497Z,8.61
2019-05-03T02:29:15.486Z,8.63
2019-05-03T02:30:15.487Z,8.64
2019-05-03T02:31:15.466Z,8.63
2019-05-03T02:32:15.474Z,8.64
2019-05-03T02:33:15.446Z,8.65
2019-05-03T02:34:15.453Z,8.64
2019-05-03T02:35:15.422Z,8.67
2019-05-03T02:36:15.412Z,8.65
2019-05-03T02:37:15.411Z,8.65
2019-05-03T02:38:15.417Z,8.65
2019-05-03T02:39:15.382Z,8.67
2019-05-03T02:40:15.373Z,8.65
2019-05-03T02:41:15.362Z,8.67
2019-05-03T02:42:16.222Z,8.67
2019-05-03T02:43:16.563Z,8.64
2019-05-03T02:44:15.724Z,8.64
2019-05-03T02:45:15.534Z,8.63
2019-05-03T02:46:16.690Z,8.63
2019-05-03T02:47:15.889Z,8.61
2019-05-03T02:48:16.569Z,8.61
2019-05-03T02:49:15.470Z,8.63
2019-05-03T02:50:16.660Z,8.63
2019-05-03T02:51:15.747Z,8.63
2019-05-03T02:52:15.256Z,8.65
2019-05-03T02:53:15.793Z,8.67
2019-05-03T02:54:15.778Z,8.67
2019-05-03T02:55:15.983Z,8.68
2019-05-03T02:56:22.301Z,8.70
2019-05-03T02:57:16.184Z,8.68
2019-05-03T02:58:15.893Z,8.68
2019-05-03T02:59:15.956Z,8.68
2019-05-03T03:00:16.408Z,8.71
2019-05-03T03:01:16.307Z,8.71
2019-05-03T03:02:15.222Z,8.68
2019-05-03T03:03:16.678Z,8.68
2019-05-03T03:04:15.953Z,8.64
2019-05-03T03:05:16.575Z,8.61
2019-05-03T03:06:15.683Z,8.60
2019-05-03T03:07:15.237Z,8.57
2019-05-03T03:08:16.248Z,8.57
2019-05-03T03:09:16.425Z,8.54
2019-05-03T03:10:16.149Z,8.52
2019-05-03T03:11:15.556Z,8.50
2019-05-03T03:12:15.311Z,8.47
2019-05-03T03:13:16.336Z,8.46
2019-05-03T03:14:16.771Z,8.45
2019-05-03T03:15:16.186Z,8.45
2019-05-03T03:16:15.882Z,8.45
2019-05-03T03:17:15.023Z,8.43
2019-05-03T03:18:15.707Z,8.45
2019-05-03T03:19:15.901Z,8.46
2019-05-03T03:20:16.175Z,8.46
2019-05-03T03:21:15.978Z,8.46
2019-05-03T03:22:15.946Z,8.46
2019-05-03T03:23:17.948Z,8.45
2019-05-03T03:24:16.897Z,8.45
2019-05-03T03:25:17.594Z,8.42
2019-05-03T03:26:15.594Z,8.40
2019-05-03T03:27:16.502Z,8.40
2019-05-03T03:28:15.865Z,8.42
2019-05-03T03:29:15.985Z,8.42
2019-05-03T03:30:17.384Z,8.40
2019-05-03T03:31:17.692Z,8.39
2019-05-03T03:32:18.223Z,8.39
2019-05-03T03:33:17.471Z,8.37
2019-05-03T03:34:18.279Z,8.34
2019-05-03T03:35:20.315Z,8.32
2019-05-03T03:36:37.729Z,8.31
2019-05-03T03:37:15.833Z,8.28
2019-05-03T03:38:15.525Z,8.24
2019-05-03T03:39:15.115Z,8.20
2019-05-03T03:40:16.053Z,8.17
2019-05-03T03:41:16.283Z,8.12
2019-05-03T03:42:16.164Z,8.09
2019-05-03T03:43:15.676Z,8.07
2019-05-03T03:44:15.343Z,8.04
2019-05-03T03:45:16.587Z,8.06
2019-05-03T03:46:15.862Z,8.06
2019-05-03T03:47:16.665Z,8.03
2019-05-03T03:48:15.834Z,8.03
2019-05-03T03:49:15.480Z,8.04
2019-05-03T03:50:15.178Z,8.06
2019-05-03T03:51:15.562Z,8.10
2019-05-03T03:52:16.034Z,8.13
2019-05-03T03:53:15.467Z,8.13
2019-05-03T03:54:15.545Z,8.17
2019-05-03T03:55:15.967Z,8.17
2019-05-03T03:56:15.981Z,8.20
2019-05-03T03:57:15.900Z,8.21
2019-05-03T03:58:21.988Z,8.22
2019-05-03T03:59:15.600Z,8.24
2019-05-03T04:00:16.251Z,8.24
2019-05-03T04:01:15.681Z,8.24
2019-05-03T04:02:15.942Z,8.25
2019-05-03T04:03:15.845Z,8.27
2019-05-03T04:04:16.076Z,8.27
2019-05-03T04:05:15.931Z,8.27
2019-05-03T04:06:15.396Z,8.24
2019-05-03T04:07:15.863Z,8.22
2019-05-03T04:08:16.112Z,8.21
2019-05-03T04:09:16.059Z,8.17
2019-05-03T04:10:15.695Z,8.18
2019-05-03T04:11:15.630Z,8.14
2019-05-03T04:12:16.597Z,8.13
2019-05-03T04:13:15.951Z,8.10
2019-05-03T04:14:16.114Z,8.10
2019-05-03T04:15:15.994Z,8.07
2019-05-03T04:16:20.355Z,8.07
2019-05-03T04:17:15.332Z,8.07
2019-05-03T04:18:16.370Z,8.09
2019-05-03T04:19:17.155Z,8.12
2019-05-03T04:20:16.241Z,8.12
2019-05-03T04:21:16.192Z,8.13
2019-05-03T04:22:16.474Z,8.13
2019-05-03T04:23:16.225Z,8.17
2019-05-03T04:24:16.288Z,8.18
2019-05-03T04:25:15.364Z,8.18
2019-05-03T04:26:16.255Z,8.18
2019-05-03T04:27:22.263Z,8.18
2019-05-03T04:28:16.286Z,8.18
2019-05-03T04:29:16.110Z,8.18
2019-05-03T04:30:16.525Z,8.18
2019-05-03T04:31:15.256Z,8.18
2019-05-03T04:32:15.728Z,8.18
2019-05-03T04:33:15.982Z,8.18
2019-05-03T04:34:16.203Z,8.18
2019-05-03T04:35:16.430Z,8.17
2019-05-03T04:36:15.905Z,8.18
2019-05-03T04:37:16.260Z,8.18
2019-05-03T04:38:16.267Z,8.17
2019-05-03T04:39:17.232Z,8.14
2019-05-03T04:40:15.832Z,8.14
2019-05-03T04:41:15.925Z,8.12
2019-05-03T04:42:16.562Z,8.13
2019-05-03T04:43:16.256Z,8.14
2019-05-03T04:44:15.473Z,8.18
2019-05-03T04:45:16.536Z,8.18
2019-05-03T04:46:16.216Z,8.22
2019-05-03T04:47:15.697Z,8.27
2019-05-03T04:48:16.064Z,8.29
2019-05-03T04:49:15.175Z,8.27
2019-05-03T04:50:16.286Z,8.28
2019-05-03T04:51:16.595Z,8.27
2019-05-03T04:52:16.526Z,8.24
2019-05-03T04:53:16.178Z,8.27
2019-05-03T04:54:16.348Z,8.27
2019-05-03T04:55:15.979Z,8.27
2019-05-03T04:56:16.670Z,8.25
2019-05-03T04:57:16.040Z,8.28
2019-05-03T04:58:16.202Z,8.28
2019-05-03T04:59:15.942Z,8.29
2019-05-03T05:00:15.955Z,8.28
2019-05-03T05:01:15.757Z,8.27
2019-05-03T05:02:15.878Z,8.25
2019-05-03T05:03:15.069Z,8.22
2019-05-03T05:04:16.086Z,8.18
2019-05-03T05:05:15.407Z,8.14
2019-05-03T05:06:15.458Z,8.13
2019-05-03T05:07:15.522Z,8.14
2019-05-03T05:08:16.012Z,8.17
2019-05-03T05:09:15.581Z,8.14
2019-05-03T05:10:15.314Z,8.18
2019-05-03T05:11:15.794Z,8.20
2019-05-03T05:12:16.040Z,8.21
2019-05-03T05:13:15.802Z,8.17
2019-05-03T05:14:15.317Z,8.14
2019-05-03T05:15:15.649Z,8.13
2019-05-03T05:16:15.817Z,8.10
2019-05-03T05:17:16.105Z,8.09
2019-05-03T05:18:16.077Z,8.00
2019-05-03T05:19:15.165Z,7.99
2019-05-03T05:20:14.503Z,8.02
2019-05-03T05:21:14.988Z,8.02
2019-05-03T05:22:15.386Z,8.03
2019-05-03T05:23:14.781Z,8.03
2019-05-03T05:24:15.150Z,8.04
2019-05-03T05:25:14.842Z,8.07
2019-05-03T05:26:14.493Z,8.09
2019-05-03T05:27:14.639Z,8.09
2019-05-03T05:28:14.985Z,8.09
2019-05-03T05:29:14.632Z,8.06
2019-05-03T05:30:14.969Z,8.03
2019-05-03T05:31:15.166Z,8.03
2019-05-03T05:32:14.479Z,8.04
2019-05-03T05:33:14.545Z,8.12
2019-05-03T05:34:14.913Z,8.17
2019-05-03T05:35:14.385Z,8.18
2019-05-03T05:36:15.155Z,8.22
2019-05-03T05:37:14.534Z,8.24
2019-05-03T05:38:15.019Z,8.27
2019-05-03T05:39:15.187Z,8.34
2019-05-03T05:40:15.518Z,8.40
2019-05-03T05:41:15.476Z,8.47
2019-05-03T05:42:14.890Z,8.57
2019-05-03T05:43:15.129Z,8.68
2019-05-03T05:44:14.491Z,8.83
2019-05-03T05:45:15.207Z,9.34
2019-05-03T05:46:14.621Z,10.63
2019-05-03T05:47:14.969Z,10.11
2019-05-03T05:48:15.299Z,9.85
2019-05-03T05:49:14.676Z,9.52
2019-05-03T05:50:14.885Z,9.20
2019-05-03T05:51:14.159Z,9.06
2019-05-03T05:52:15.329Z,9.10
2019-05-03T05:53:15.112Z,9.16
2019-05-03T05:54:14.361Z,9.19
2019-05-03T05:55:14.894Z,9.24
2019-05-03T05:56:13.271Z,9.35
2019-05-03T05:57:14.921Z,9.49
2019-05-03T05:58:15.568Z,10.63
2019-05-03T05:59:14.858Z,10.70
2019-05-03T06:00:15.213Z,10.60
2019-05-03T06:01:14.598Z,10.63
2019-05-03T06:02:14.981Z,11.67
2019-05-03T06:03:14.891Z,13.32
2019-05-03T06:04:15.264Z,14.69
2019-05-03T06:05:14.799Z,14.09
2019-05-03T06:06:15.193Z,14.01
2019-05-03T06:07:14.788Z,14.60
2019-05-03T06:08:15.019Z,15.03
2019-05-03T06:09:13.116Z,15.41
2019-05-03T06:10:14.742Z,16.65
2019-05-03T06:11:14.767Z,17.40
2019-05-03T06:12:14.768Z,17.03
2019-05-03T06:13:15.087Z,17.17
2019-05-03T06:14:13.060Z,18.10
2019-05-03T06:15:14.922Z,18.60
2019-05-03T06:16:13.054Z,19.12
2019-05-03T06:17:14.633Z,18.26
2019-05-03T06:18:14.663Z,18.25
2019-05-03T06:19:14.661Z,17.81
2019-05-03T06:20:13.011Z,18.02
2019-05-03T06:21:14.743Z,18.02
2019-05-03T06:22:12.992Z,18.17
2019-05-03T06:23:14.448Z,18.74
2019-05-03T06:24:14.706Z,19.70
2019-05-03T06:25:16.337Z,20.34
2019-05-03T06:26:15.608Z,20.78
2019-05-03T06:27:12.937Z,20.75
2019-05-03T06:28:18.405Z,20.13
2019-05-03T06:29:14.960Z,20.40
2019-05-03T06:30:14.862Z,19.86
2019-05-03T06:31:14.775Z,19.67
2019-05-03T06:32:12.878Z,20.13
2019-05-03T06:33:14.366Z,20.22
2019-05-03T06:34:14.818Z,20.75
2019-05-03T06:35:12.857Z,21.28
2019-05-03T06:36:12.829Z,21.33
2019-05-03T06:37:14.678Z,20.58
2019-05-03T06:38:12.810Z,19.21
2019-05-03T06:39:12.798Z,18.31
2019-05-03T06:40:14.775Z,18.71
2019-05-03T06:41:14.861Z,18.46
2019-05-03T06:42:17.403Z,18.31
2019-05-03T06:43:15.603Z,18.93
2019-05-03T06:44:14.494Z,19.27
2019-05-03T06:45:12.736Z,19.71
2019-05-03T06:46:13.567Z,19.71
2019-05-03T06:47:14.710Z,20.27
2019-05-03T06:48:15.693Z,19.64
2019-05-03T06:49:12.704Z,20.38
2019-05-03T06:50:14.437Z,21.26
2019-05-03T06:51:19.188Z,21.38
2019-05-03T06:52:14.774Z,20.30
2019-05-03T06:53:13.031Z,20.61
2019-05-03T06:54:12.644Z,20.60
2019-05-03T06:55:14.363Z,21.16
2019-05-03T06:56:14.727Z,21.26
2019-05-03T06:57:14.418Z,19.13
2019-05-03T06:58:12.615Z,18.47
2019-05-03T06:59:14.005Z,18.28
2019-05-03T07:00:12.581Z,15.91
2019-05-03T07:01:12.585Z,14.86
2019-05-03T07:02:14.723Z,13.99
2019-05-03T07:03:12.569Z,13.13
2019-05-03T07:04:12.551Z,12.88
2019-05-03T07:05:12.520Z,12.66
2019-05-03T07:06:12.520Z,12.29
2019-05-03T07:07:12.502Z,12.19
2019-05-03T07:08:12.502Z,12.33
2019-05-03T07:09:14.358Z,12.43
2019-05-03T07:10:12.472Z,11.98
2019-05-03T07:11:12.469Z,12.03
2019-05-03T07:12:14.647Z,12.23
2019-05-03T07:13:12.442Z,12.31
2019-05-03T07:14:12.445Z,12.26
2019-05-03T07:15:14.401Z,12.38
2019-05-03T07:16:12.398Z,12.08
2019-05-03T07:17:14.387Z,12.19
2019-05-03T07:18:12.397Z,12.36
2019-05-03T07:19:12.376Z,12.52
2019-05-03T07:20:12.364Z,12.71
2019-05-03T07:21:12.367Z,13.13
2019-05-03T07:22:12.339Z,13.50
2019-05-03T07:23:12.325Z,13.32
2019-05-03T07:24:12.327Z,12.62
2019-05-03T07:25:12.315Z,12.41
2019-05-03T07:26:12.295Z,12.21
2019-05-03T07:27:12.291Z,12.59
2019-05-03T07:28:12.278Z,14.21
2019-05-03T07:29:12.263Z,15.38
2019-05-03T07:30:12.263Z,14.06
2019-05-03T07:31:12.254Z,13.36
2019-05-03T07:32:12.232Z,13.63
2019-05-03T07:33:12.233Z,13.79
2019-05-03T07:34:12.213Z,14.71
2019-05-03T07:35:12.201Z,14.20
2019-05-03T07:36:12.202Z,13.84
2019-05-03T07:37:12.181Z,13.81
2019-05-03T07:38:12.170Z,15.03
2019-05-03T07:39:12.160Z,15.13
2019-05-03T07:40:12.151Z,14.04
2019-05-03T07:41:12.170Z,13.39
2019-05-03T07:42:12.129Z,12.92
2019-05-03T07:43:12.128Z,14.48
2019-05-03T07:44:12.111Z,13.36
2019-05-03T07:45:12.097Z,12.69
2019-05-03T07:46:12.099Z,12.12
2019-05-03T07:47:12.087Z,11.85
2019-05-03T07:48:12.088Z,11.56
2019-05-03T07:49:12.047Z,11.38
2019-05-03T07:50:12.047Z,11.21
2019-05-03T07:51:12.036Z,11.08
2019-05-03T07:52:12.036Z,11.05
2019-05-03T07:53:12.015Z,10.95
2019-05-03T07:54:12.004Z,10.91
2019-05-03T07:55:12.000Z,10.90
2019-05-03T07:56:12.008Z,10.87
2019-05-03T07:57:11.977Z,10.86
2019-05-03T07:58:11.958Z,10.65
2019-05-03T07:59:11.943Z,10.57
2019-05-03T08:00:11.953Z,10.54
2019-05-03T08:01:11.935Z,10.51
2019-05-03T08:02:11.914Z,10.44
2019-05-03T08:03:11.902Z,10.55
2019-05-03T08:04:11.892Z,10.63
2019-05-03T08:05:11.891Z,10.69
2019-05-03T08:06:11.871Z,10.72
2019-05-03T08:07:22.084Z,10.63
2019-05-03T08:08:14.769Z,10.62
2019-05-03T08:09:11.840Z,10.68
2019-05-03T08:10:11.829Z,10.69
2019-05-03T08:11:11.809Z,10.84
2019-05-03T08:12:11.809Z,11.02
2019-05-03T08:13:11.788Z,11.33
2019-05-03T08:14:11.813Z,13.88
2019-05-03T08:15:11.776Z,15.12
2019-05-03T08:16:11.767Z,15.95
2019-05-03T08:17:11.751Z,16.70
2019-05-03T08:18:11.757Z,17.47
2019-05-03T08:20:20.630Z,20.34
2019-05-03T08:21:20.597Z,20.30
2019-05-03T08:22:20.594Z,20.82
2019-05-03T08:23:27.466Z,21.81
2019-05-03T08:24:21.565Z,21.86
2019-05-03T08:25:20.579Z,20.44
2019-05-03T08:26:20.554Z,17.07
2019-05-03T08:27:20.562Z,15.18
2019-05-03T08:28:20.537Z,14.04
2019-05-03T08:29:20.524Z,13.16
2019-05-03T08:30:20.516Z,13.61
2019-05-03T08:31:20.493Z,16.25
2019-05-03T08:32:20.493Z,15.91
2019-05-03T08:33:20.473Z,14.72
2019-05-03T08:34:20.482Z,13.76
2019-05-03T08:35:20.452Z,16.13
2019-05-03T08:36:20.443Z,18.04
2019-05-03T08:37:20.442Z,19.28
2019-05-03T08:38:20.421Z,20.93
2019-05-03T08:39:20.409Z,19.32
2019-05-03T08:40:20.402Z,17.17
2019-05-03T08:41:20.410Z,15.78
2019-05-03T08:42:20.380Z,14.59
2019-05-03T08:43:20.379Z,13.32
2019-05-03T08:44:20.362Z,12.58
2019-05-03T08:45:20.349Z,12.16
2019-05-03T08:46:20.360Z,11.84
2019-05-03T08:47:20.343Z,11.64
2019-05-03T08:48:20.342Z,11.24
2019-05-03T08:49:20.330Z,10.86
2019-05-03T08:50:21.520Z,10.75
2019-05-03T08:51:21.631Z,10.81
2019-05-03T08:52:20.292Z,10.84
2019-05-03T08:53:20.267Z,10.83
2019-05-03T08:54:22.021Z,10.70
2019-05-03T08:55:20.267Z,10.81
2019-05-03T08:56:20.245Z,10.78
2019-05-03T08:57:20.734Z,11.09
2019-05-03T08:58:20.228Z,11.27
2019-05-03T08:59:29.131Z,12.43
2019-05-03T09:00:21.207Z,12.80
2019-05-03T09:01:20.199Z,12.44
2019-05-03T09:02:20.258Z,14.46
2019-05-03T09:03:20.176Z,16.37
2019-05-03T09:04:33.521Z,16.60
2019-05-03T09:05:21.134Z,17.35
2019-05-03T09:06:20.125Z,17.46
2019-05-03T09:07:20.129Z,16.70
2019-05-03T09:08:20.122Z,17.12
2019-05-03T09:09:20.133Z,18.17
2019-05-03T09:10:20.093Z,16.90
2019-05-03T09:11:30.854Z,16.32
2019-05-03T09:12:21.074Z,15.30
2019-05-03T09:13:20.062Z,15.01
2019-05-03T09:14:20.040Z,14.30
2019-05-03T09:15:21.704Z,13.93
2019-05-03T09:16:20.107Z,13.79
2019-05-03T09:17:20.018Z,13.47
2019-05-03T09:18:20.010Z,13.32
2019-05-03T09:19:20.026Z,13.41
2019-05-03T09:20:20.009Z,12.87
2019-05-03T09:21:19.983Z,12.07
2019-05-03T09:22:19.949Z,11.72
2019-05-03T09:23:23.055Z,11.67
2019-05-03T09:24:19.938Z,11.90
2019-05-03T09:25:19.937Z,11.90
2019-05-03T09:26:19.906Z,12.08
2019-05-03T09:27:19.918Z,12.23
2019-05-03T09:28:20.811Z,12.44
2019-05-03T09:29:19.880Z,12.49
2019-05-03T09:30:19.875Z,12.54
2019-05-03T09:31:19.873Z,12.55
2019-05-03T09:32:19.844Z,12.43
2019-05-03T09:33:19.845Z,12.31
2019-05-03T09:34:19.834Z,12.40
2019-05-03T09:35:29.643Z,12.34
2019-05-03T09:36:20.821Z,12.59
2019-05-03T09:37:19.805Z,12.74
2019-05-03T09:38:19.795Z,12.85
2019-05-03T09:39:19.773Z,12.87
2019-05-03T09:40:19.781Z,13.22
2019-05-03T09:41:19.751Z,13.43
2019-05-03T09:42:19.744Z,12.92
2019-05-03T09:43:19.733Z,12.66
2019-05-03T09:44:19.720Z,12.73
2019-05-03T09:45:19.719Z,12.84
2019-05-03T09:46:19.709Z,12.81
2019-05-03T09:47:19.690Z,12.52
2019-05-03T09:48:19.690Z,12.15
2019-05-03T09:49:19.669Z,12.05
2019-05-03T09:50:19.658Z,11.94
2019-05-03T09:51:19.652Z,11.94
2019-05-03T09:52:19.647Z,12.08
2019-05-03T09:53:19.641Z,12.05
2019-05-03T09:54:19.629Z,12.21
2019-05-03T09:55:19.615Z,12.48
2019-05-03T09:56:19.595Z,12.46
2019-05-03T09:57:19.598Z,12.33
2019-05-03T09:58:19.575Z,12.49
2019-05-03T09:59:19.562Z,12.59
2019-05-03T10:00:20.063Z,12.48
2019-05-03T10:01:19.555Z,12.04
2019-05-03T10:02:19.534Z,11.84
2019-05-03T10:03:19.533Z,11.66
2019-05-03T10:04:20.014Z,11.49
2019-05-03T10:05:19.513Z,11.45
2019-05-03T10:06:19.485Z,11.62
2019-05-03T10:07:19.471Z,11.72
2019-05-03T10:08:19.471Z,11.78
2019-05-03T10:09:19.460Z,12.03
2019-05-03T10:10:19.458Z,12.04
2019-05-03T10:11:19.432Z,12.19
2019-05-03T10:12:19.419Z,12.21
2019-05-03T10:13:23.542Z,12.44
2019-05-03T10:14:20.397Z,12.37
2019-05-03T10:15:19.405Z,12.36
2019-05-03T10:16:19.382Z,12.37
2019-05-03T10:17:19.373Z,12.26
2019-05-03T10:18:19.368Z,12.16
2019-05-03T10:19:19.347Z,12.15
2019-05-03T10:20:19.358Z,12.00
2019-05-03T10:21:19.329Z,12.15
2019-05-03T10:22:19.329Z,12.30
2019-05-03T10:23:19.315Z,12.48
2019-05-03T10:24:19.302Z,12.61
2019-05-03T10:25:19.274Z,12.77
2019-05-03T10:26:19.278Z,12.89
2019-05-03T10:27:19.264Z,13.04
2019-05-03T10:28:19.274Z,13.01
2019-05-03T10:29:19.233Z,12.87
2019-05-03T10:30:19.233Z,12.85
2019-05-03T10:31:19.214Z,12.71
2019-05-03T10:32:19.215Z,12.59
2019-05-03T10:33:19.215Z,12.48
2019-05-03T10:34:19.192Z,12.21
2019-05-03T10:35:19.229Z,12.19
2019-05-03T10:36:20.078Z,12.12
2019-05-03T10:37:19.150Z,12.19
2019-05-03T10:38:19.139Z,12.03
2019-05-03T10:39:19.142Z,12.12
2019-05-03T10:40:19.129Z,12.18
2019-05-03T10:41:19.111Z,12.21
2019-05-03T10:42:19.098Z,12.26
2019-05-03T10:43:19.092Z,12.34
2019-05-03T10:44:19.089Z,12.49
2019-05-03T10:45:19.077Z,12.67
2019-05-03T10:46:19.078Z,12.67
2019-05-03T10:47:19.046Z,12.61
2019-05-03T10:48:19.049Z,12.69
2019-05-03T10:49:19.026Z,12.71
2019-05-03T10:50:19.018Z,12.73
2019-05-03T10:51:19.015Z,12.67
2019-05-03T10:52:18.993Z,12.73
2019-05-03T10:53:18.985Z,12.69
2019-05-03T10:54:18.974Z,12.70
2019-05-03T10:55:18.973Z,12.87
2019-05-03T10:56:24.480Z,13.12
2019-05-03T10:57:19.940Z,13.13
2019-05-03T10:58:18.933Z,13.32
2019-05-03T10:59:18.932Z,13.57
2019-05-03T11:00:42.581Z,13.50
2019-05-03T11:01:19.911Z,13.41
2019-05-03T11:02:18.881Z,13.47
2019-05-03T11:03:18.880Z,13.29
2019-05-03T11:04:18.870Z,13.07
2019-05-03T11:05:18.853Z,12.96
2019-05-03T11:06:18.852Z,12.96
2019-05-03T11:07:18.839Z,12.99
2019-05-03T11:08:18.831Z,12.88
2019-05-03T11:09:18.809Z,12.59
2019-05-03T11:10:18.811Z,12.52
2019-05-03T11:11:18.798Z,12.29
2019-05-03T11:12:18.797Z,12.21
2019-05-03T11:13:18.776Z,12.07
2019-05-03T11:14:18.767Z,12.03
2019-05-03T11:15:18.746Z,12.08
2019-05-03T11:16:18.747Z,12.05
2019-05-03T11:17:18.748Z,12.12
2019-05-03T11:18:18.723Z,12.13
2019-05-03T11:19:18.715Z,12.08
2019-05-03T11:20:28.424Z,12.03
2019-05-03T11:21:28.182Z,12.03
2019-05-03T11:22:19.686Z,12.01
2019-05-03T11:23:18.665Z,12.00
2019-05-03T11:24:18.663Z,11.96
2019-05-03T11:25:18.654Z,11.82
2019-05-03T11:26:19.337Z,11.64
2019-05-03T11:27:18.620Z,11.75
2019-05-03T11:28:19.218Z,11.98
2019-05-03T11:29:18.611Z,12.22
2019-05-03T11:30:19.304Z,12.21
2019-05-03T11:31:18.581Z,12.19
2019-05-03T11:32:19.364Z,12.30
2019-05-03T11:33:18.561Z,12.23
2019-05-03T11:34:22.248Z,12.01
2019-05-03T11:35:18.538Z,12.08
2019-05-03T11:36:18.530Z,12.07
2019-05-03T11:37:18.539Z,12.05
2019-05-03T11:38:18.506Z,12.13
2019-05-03T11:39:18.496Z,12.12
2019-05-03T11:40:18.488Z,12.22
2019-05-03T11:41:29.499Z,12.25
2019-05-03T11:42:19.688Z,12.46
2019-05-03T11:43:18.446Z,12.56
2019-05-03T11:44:18.438Z,12.66
2019-05-03T11:45:18.435Z,12.61
2019-05-03T11:46:18.416Z,12.49
2019-05-03T11:47:18.404Z,12.38
2019-05-03T11:48:18.411Z,12.08
2019-05-03T11:49:18.396Z,11.96
2019-05-03T11:50:18.535Z,12.03
2019-05-03T11:51:18.377Z,12.07
2019-05-03T11:52:18.385Z,12.11
2019-05-03T11:53:18.352Z,12.15
2019-05-03T11:54:18.331Z,12.05
2019-05-03T11:55:18.334Z,12.00
2019-05-03T11:56:18.321Z,11.90
2019-05-03T11:57:18.310Z,12.05
2019-05-03T11:58:18.367Z,12.21
2019-05-03T11:59:18.280Z,12.25
2019-05-03T12:00:18.271Z,12.25
2019-05-03T12:01:20.092Z,12.31
2019-05-03T12:02:18.248Z,12.33
2019-05-03T12:03:18.238Z,12.25
2019-05-03T12:04:18.228Z,12.26
2019-05-03T12:05:18.219Z,12.30
2019-05-03T12:06:18.217Z,12.38
2019-05-03T12:07:18.575Z,12.26
2019-05-03T12:08:18.177Z,12.33
2019-05-03T12:09:18.166Z,12.31
2019-05-03T12:10:32.467Z,12.21
2019-05-03T12:11:19.155Z,12.21
2019-05-03T12:12:18.136Z,12.21
2019-05-03T12:13:18.152Z,12.19
2019-05-03T12:14:18.122Z,12.22
2019-05-03T12:15:18.116Z,12.25
2019-05-03T12:16:25.120Z,12.19
2019-05-03T12:17:26.071Z,12.04
2019-05-03T12:18:19.414Z,12.04
2019-05-03T12:19:22.835Z,12.00
2019-05-03T12:20:20.344Z,11.87
2019-05-03T12:21:19.506Z,11.96
2019-05-03T12:22:18.556Z,11.96
2019-05-03T12:23:18.638Z,12.01
2019-05-03T12:24:18.741Z,12.01
2019-05-03T12:25:18.816Z,11.98
2019-05-03T12:26:18.452Z,11.96
2019-05-03T12:27:17.988Z,11.96
2019-05-03T12:28:17.997Z,11.88
2019-05-03T12:29:17.960Z,11.78
2019-05-03T12:30:18.006Z,11.85
2019-05-03T12:31:33.423Z,11.88
2019-05-03T12:32:18.932Z,11.88
2019-05-03T12:33:17.917Z,12.01
2019-05-03T12:34:17.913Z,12.08
2019-05-03T12:35:17.922Z,12.12
2019-05-03T12:36:17.908Z,12.07
2019-05-03T12:37:17.879Z,12.07
2019-05-03T12:38:17.866Z,12.00
2019-05-03T12:39:26.647Z,12.03
2019-05-03T12:40:18.855Z,12.03
2019-05-03T12:41:17.835Z,12.13
2019-05-03T12:42:18.920Z,12.18
2019-05-03T12:43:17.815Z,12.12
2019-05-03T12:44:18.292Z,12.11
2019-05-03T12:45:17.804Z,11.90
2019-05-03T12:46:18.305Z,11.67
2019-05-03T12:47:17.772Z,11.57
2019-05-03T12:48:17.767Z,11.62
2019-05-03T12:49:17.751Z,11.67
2019-05-03T12:50:17.760Z,11.78
2019-05-03T12:51:17.851Z,11.74
2019-05-03T12:52:18.278Z,11.72
2019-05-03T12:53:17.772Z,11.67
2019-05-03T12:54:17.706Z,11.64
2019-05-03T12:55:17.679Z,11.57
2019-05-03T12:56:23.430Z,11.57
2019-05-03T12:57:18.668Z,11.57
2019-05-03T12:58:18.384Z,11.42
2019-05-03T12:59:17.638Z,11.41
2019-05-03T13:00:17.627Z,11.53
2019-05-03T13:01:17.618Z,11.59
2019-05-03T13:02:18.248Z,11.63
2019-05-03T13:03:17.591Z,11.66
2019-05-03T13:04:17.599Z,11.57
2019-05-03T13:05:17.596Z,11.56
2019-05-03T13:06:17.576Z,11.62